Список аэропортов
Фактическая погода:

15 августа, 23:20
Температура: +26°C (+26.0*)
Ветер: перем. 1 м/с
Давление: *759 мм
неб. 1350 м
Время (МСК)Темп. СВетерВлажностьДавлениеОблачностьОсадки
21:00+25СЗ, 1 м/с46%1011 гПаясно
22:00+24З, 1 м/с56%1011 гПаясно
23:00+23З, 2 м/с63%1012 гПаясно
16 августа
00:00+22З, 2 м/с65%1011 гПаясно
01:00+22З, 2 м/с59%1011 гПаясно
02:00+22З, 3 м/с54%1010 гПаясно
03:00+22З, 3 м/с60%1010 гПаясно
04:00+22СЗ, 3 м/с65%1010 гПаясно
05:00+22СЗ, 3 м/с63%1010 гПаясно
06:00+22СЗ, 3 м/с62%1010 гПаясно
07:00+22СЗ, 3 м/с65%1010 гПаясно
08:00+24СЗ, 2 м/с64%1010 гПаясно
09:00+26С, 3 м/с56%1010 гПаясно
10:00+28С, 3 м/с49%1010 гПаясно
11:00+30С, 3 м/с43%1011 гПаясно
12:00+31С, 5 м/с38%1011 гПамалооблачно
13:00+32С, 6 м/с31%1010 гПамалооблачно
14:00+32СВ, 6 м/с30%1010 гПаясно
15:00+32СВ, 5 м/с34%1010 гПамалооблачно
16:00+31СВ, 5 м/с35%1010 гПамалооблачно
17:00+31СВ, 4 м/с38%1010 гПамалооблачно
18:00+30В, 4 м/с42%1010 гПамалооблачно
19:00+28В, 4 м/с49%1010 гПамалооблачно
20:00+26В, 3 м/с57%1010 гПамалооблачно
21:00+25В, 2 м/с62%1010 гПамалооблачно
22:00+24В, 1 м/с69%1010 гПаясно
23:00+23ЮЗ, 1 м/с71%1010 гПаясно
17 августа
00:00+22З, 1 м/с72%1010 гПаясно
01:00+22З, 2 м/с72%1011 гПаясно
02:00+21З, 2 м/с71%1010 гПаясно
03:00+21З, 2 м/с66%1010 гПаясно
04:00+21З, 3 м/с64%1010 гПаясно
05:00+22З, 3 м/с60%1010 гПаясно
06:00+22З, 4 м/с58%1010 гПаясно
07:00+23СЗ, 4 м/с62%1010 гПаясно
08:00+24СЗ, 4 м/с64%1010 гПаясно
09:00+27СЗ, 5 м/с56%1010 гПаясно
10:00+28СЗ, 5 м/с50%1011 гПаясно
11:00+30С, 4 м/с46%1011 гПаясно
12:00+31С, 4 м/с42%1011 гПамалооблачно
13:00+32С, 4 м/с40%1011 гПас прояснениями
14:00+31С, 4 м/с43%1010 гПаоблачносл. дождь
15:00+29СВ, 2 м/с62%1011 гПаоблачнодождь
16:00+27ЮВ, 3 м/с73%1011 гПаоблачнодождь
17:00+28ЮВ, 3 м/с69%1010 гПас прояснениямидождь
18:00+29В, 3 м/с61%1010 гПамалооблачно
19:00+28В, 3 м/с58%1010 гПаясно
20:00+27В, 1 м/с59%1011 гПаясно
21:00+25Ю, 1 м/с66%1011 гПаясно